createdAt,value
2023-04-29T00:03:57.897Z,25.3
2023-04-29T00:05:59.785Z,23.8
2023-04-29T00:08:01.641Z,24.3
2023-04-29T00:10:03.574Z,22.9
2023-04-29T00:12:05.545Z,27.9
2023-04-29T00:16:12.757Z,23.3
2023-04-29T00:18:14.758Z,22
2023-04-29T00:20:16.757Z,26.4
2023-04-29T00:22:45.589Z,24.9
2023-04-29T00:24:47.636Z,25.5
2023-04-29T00:26:49.577Z,25.9
2023-04-29T00:28:54.796Z,25.1
2023-04-29T00:30:56.804Z,23.9
2023-04-29T00:32:58.855Z,25.7
2023-04-29T00:35:00.730Z,21.4
2023-04-29T00:37:02.761Z,21.9
2023-04-29T00:39:04.733Z,22.2
2023-04-29T00:41:06.726Z,24.3
2023-04-29T00:43:11.957Z,24.6
2023-04-29T00:45:13.903Z,20.7
2023-04-29T00:47:15.962Z,24.1
2023-04-29T00:49:17.933Z,22.2
2023-04-29T00:53:21.863Z,19.6
2023-04-29T00:55:23.860Z,18.5
2023-04-29T01:03:35.119Z,18.8
2023-04-29T01:05:37.030Z,18.6
2023-04-29T01:07:39.007Z,19.8
2023-04-29T01:09:40.979Z,18.6
2023-04-29T01:11:46.201Z,18.3
2023-04-29T01:15:50.214Z,20.3
2023-04-29T01:16:52.836Z,21
2023-04-29T01:18:54.763Z,18.7
2023-04-29T01:20:56.754Z,19.5
2023-04-29T01:22:58.737Z,18.8
2023-04-29T01:25:03.957Z,17
2023-04-29T01:27:05.944Z,16
2023-04-29T01:29:07.896Z,17.8
2023-04-29T01:31:09.979Z,17
2023-04-29T01:33:11.906Z,15.3
2023-04-29T01:35:13.847Z,15.4
2023-04-29T01:37:15.822Z,15.6
2023-04-29T01:39:21.029Z,14.7
2023-04-29T01:43:25.018Z,14.7
2023-04-29T01:45:26.985Z,15.3
2023-04-29T01:47:28.977Z,14.7
2023-04-29T01:49:30.973Z,12.9
2023-04-29T01:59:44.146Z,14.7
2023-04-29T02:01:46.087Z,14.2
2023-04-29T02:03:48.279Z,16.2
2023-04-29T02:05:50.060Z,13.2
2023-04-29T02:07:55.264Z,14.5
2023-04-29T02:11:59.266Z,14.3
2023-04-29T02:13:01.826Z,14.1
2023-04-29T02:15:03.856Z,13.5
2023-04-29T02:17:06.137Z,14.8
2023-04-29T02:19:07.882Z,16.1
2023-04-29T02:21:13.054Z,14.2
2023-04-29T02:23:15.044Z,15.2
2023-04-29T02:25:17.035Z,11.9
2023-04-29T02:27:19.056Z,13.6
2023-04-29T02:29:20.999Z,13
2023-04-29T02:31:23.001Z,15
2023-04-29T02:33:25.033Z,13.3
2023-04-29T02:35:30.221Z,16
2023-04-29T02:37:32.244Z,14.3
2023-04-29T02:41:36.194Z,13.7
2023-04-29T02:43:38.185Z,13.2
2023-04-29T02:45:40.166Z,15.3
2023-04-29T02:51:49.306Z,14.1
2023-04-29T02:57:55.282Z,13.8
2023-04-29T02:59:57.257Z,14.9
2023-04-29T03:09:11.029Z,16.1
2023-04-29T03:11:13.024Z,12.6
2023-04-29T03:13:14.955Z,13.4
2023-04-29T03:15:16.963Z,14.9
2023-04-29T03:17:22.166Z,14.6
2023-04-29T03:19:24.136Z,15.5
2023-04-29T03:21:26.139Z,14.8
2023-04-29T03:23:28.078Z,13.5
2023-04-29T03:25:30.114Z,13.5
2023-04-29T03:27:32.065Z,16.1
2023-04-29T03:29:34.014Z,14
2023-04-29T03:31:39.299Z,14.8
2023-04-29T03:33:41.218Z,14.8
2023-04-29T03:35:43.244Z,13.5
2023-04-29T03:37:45.215Z,16.4
2023-04-29T03:39:47.150Z,14.3
2023-04-29T03:41:49.167Z,16.4
2023-04-29T03:43:51.153Z,16.2
2023-04-29T03:45:56.378Z,16.1
2023-04-29T03:47:58.485Z,16.2
2023-04-29T03:50:00.332Z,17.3
2023-04-29T03:52:02.302Z,15.8
2023-04-29T03:54:04.302Z,17.2
2023-04-29T03:56:06.288Z,14.5
2023-04-29T03:58:08.204Z,16.2
2023-04-29T04:00:13.455Z,16
2023-04-29T04:02:15.467Z,15.4
2023-04-29T04:04:17.599Z,14.6
2023-04-29T04:06:46.298Z,16.7
2023-04-29T04:08:48.274Z,15.3
2023-04-29T04:16:59.493Z,14.3
2023-04-29T04:35:20.590Z,15.2
2023-04-29T04:37:22.538Z,17.1
2023-04-29T04:41:29.764Z,16
2023-04-29T04:43:31.723Z,18.3
2023-04-29T04:45:33.774Z,15.6
2023-04-29T05:00:53.471Z,16.4
2023-04-29T05:02:55.609Z,15.2
2023-04-29T05:04:57.416Z,16.3
2023-04-29T05:06:59.386Z,17.1
2023-04-29T05:09:04.580Z,16.5
2023-04-29T05:11:06.614Z,15.2
2023-04-29T05:13:08.564Z,13.2
2023-04-29T05:15:10.544Z,16.5
2023-04-29T05:17:12.539Z,16.1
2023-04-29T05:19:14.495Z,15.9
2023-04-29T05:21:17.791Z,13.9
2023-04-29T05:23:21.715Z,14.4
2023-04-29T05:25:23.667Z,13.6
2023-04-29T05:27:25.680Z,16.9
2023-04-29T05:29:27.698Z,18.3
2023-04-29T05:31:29.690Z,14.9
2023-04-29T05:39:40.847Z,15
2023-04-29T05:45:48.364Z,14
2023-04-29T05:49:52.548Z,16.2
2023-04-29T05:51:57.543Z,14.3
2023-04-29T05:57:04.131Z,15
2023-04-29T06:03:10.128Z,14.3
2023-04-29T06:07:18.889Z,13.4
2023-04-29T06:09:27.119Z,15.1
2023-04-29T06:13:23.267Z,15.9
2023-04-29T06:15:25.239Z,15.1
2023-04-29T06:17:27.218Z,13.1
2023-04-29T06:19:32.472Z,15.2
2023-04-29T06:21:34.419Z,15.9
2023-04-29T06:23:36.413Z,14.8
2023-04-29T06:25:38.434Z,14.6
2023-04-29T06:27:40.413Z,15.3
2023-04-29T06:29:42.396Z,14.4
2023-04-29T06:31:44.419Z,13
2023-04-29T06:37:53.606Z,13.3
2023-04-29T06:39:55.656Z,13.4
2023-04-29T06:41:57.601Z,13.7
2023-04-29T06:43:59.574Z,13.6
2023-04-29T06:46:01.560Z,14.6
2023-04-29T06:48:06.846Z,15.3
2023-04-29T06:50:08.813Z,12.3
2023-04-29T06:52:10.808Z,11.9
2023-04-29T06:53:13.380Z,14.2
2023-04-29T06:57:17.371Z,11.3
2023-04-29T06:59:19.372Z,11.9
2023-04-29T07:01:24.625Z,12.2
2023-04-29T07:03:26.732Z,11.1
2023-04-29T07:05:28.555Z,11.5
2023-04-29T07:07:30.553Z,12.4
2023-04-29T07:09:32.570Z,11.9
2023-04-29T07:11:34.544Z,10.7
2023-04-29T07:15:41.741Z,11.3
2023-04-29T07:17:43.774Z,11.1
2023-04-29T07:21:47.728Z,10.6
2023-04-29T07:23:49.700Z,10
2023-04-29T07:27:53.700Z,10
2023-04-29T07:29:58.935Z,10.6
2023-04-29T07:32:00.897Z,11.1
2023-04-29T07:34:02.911Z,11.2
2023-04-29T07:36:04.900Z,13.2
2023-04-29T07:38:06.899Z,10
2023-04-29T07:40:08.911Z,12
2023-04-29T07:42:10.879Z,10.1
2023-04-29T07:44:16.130Z,10.8
2023-04-29T07:50:48.968Z,11.7
2023-04-29T07:52:50.976Z,10.1
2023-04-29T07:54:53.138Z,10.1
2023-04-29T07:58:59.981Z,9.2
2023-04-29T08:01:01.973Z,18.5
2023-04-29T08:03:03.958Z,10.1
2023-04-29T08:05:06.243Z,9.9
2023-04-29T08:07:07.905Z,10
2023-04-29T08:09:09.880Z,9.6
2023-04-29T08:11:14.998Z,9.9
2023-04-29T08:13:16.880Z,9.2
2023-04-29T08:15:18.864Z,8.9
2023-04-29T08:17:20.766Z,9.3
2023-04-29T08:19:22.879Z,8.9
2023-04-29T08:21:24.555Z,8.4
2023-04-29T08:23:26.459Z,11.6
2023-04-29T08:25:31.459Z,9.9
2023-04-29T08:27:33.360Z,11.4
2023-04-29T08:29:35.280Z,10.6
2023-04-29T08:31:37.161Z,9.4
2023-04-29T08:33:39.054Z,10.6
2023-04-29T08:35:40.923Z,10.6
2023-04-29T08:41:49.735Z,13.8
2023-04-29T08:43:51.624Z,11.5
2023-04-29T08:44:54.341Z,10.7
2023-04-29T08:46:56.048Z,11.9
2023-04-29T08:48:57.931Z,8
2023-04-29T08:57:08.637Z,30.6
2023-04-29T08:59:10.544Z,21.2
2023-04-29T09:03:14.320Z,9.8
2023-04-29T09:05:16.141Z,11.6
2023-04-29T09:07:21.147Z,16.8
2023-04-29T09:09:23.071Z,10.9
2023-04-29T09:11:24.930Z,13.6
2023-04-29T09:13:26.881Z,31.1
2023-04-29T09:15:28.723Z,11.1
2023-04-29T09:17:30.627Z,7
2023-04-29T09:19:32.513Z,7.6
2023-04-29T09:21:37.460Z,7.7
2023-04-29T09:25:41.263Z,19
2023-04-29T09:29:44.958Z,24
2023-04-29T09:33:48.701Z,18.2
2023-04-29T09:35:53.721Z,38
2023-04-29T09:37:55.565Z,9.5
2023-04-29T09:41:02.179Z,22.6
2023-04-29T09:43:01.803Z,17.3
2023-04-29T09:45:03.690Z,22.4
2023-04-29T09:47:05.555Z,15.6
2023-04-29T09:49:10.547Z,7.3
2023-04-29T09:55:16.221Z,5.7
2023-04-29T09:57:18.090Z,5.3
2023-04-29T09:59:19.926Z,4.7
2023-04-29T10:07:30.593Z,5.1
2023-04-29T10:09:32.437Z,4.5
2023-04-29T10:15:38.052Z,3.9
2023-04-29T10:27:52.270Z,5
2023-04-29T10:29:54.099Z,4
2023-04-29T10:31:59.116Z,4.5
2023-04-29T10:34:01.036Z,4.4
2023-04-29T10:36:02.868Z,3.8
2023-04-29T10:37:05.339Z,4.4
2023-04-29T10:51:21.489Z,4.8
2023-04-29T11:15:50.049Z,3.9
2023-04-29T11:17:51.966Z,4
2023-04-29T11:19:53.984Z,5.7
2023-04-29T11:21:55.554Z,4.5
2023-04-29T11:32:08.133Z,3.4
2023-04-29T11:34:38.033Z,4
2023-04-29T11:36:39.836Z,4.1
2023-04-29T11:38:41.675Z,2.8
2023-04-29T11:40:46.690Z,5
2023-04-29T11:44:50.370Z,4
2023-04-29T11:46:52.239Z,3.3
2023-04-29T11:52:57.730Z,3.9
2023-04-29T11:55:02.724Z,5.7
2023-04-29T12:01:08.226Z,4.4
2023-04-29T12:03:10.171Z,3.3
2023-04-29T12:05:12.047Z,3.8
2023-04-29T12:07:13.748Z,3.3
2023-04-29T12:09:18.703Z,2.4
2023-04-29T12:11:20.574Z,3.9
2023-04-29T12:13:22.391Z,3.8
2023-04-29T12:15:24.225Z,3.4
2023-04-29T12:17:26.126Z,3.3
2023-04-29T12:19:27.861Z,5.3
2023-04-29T12:21:29.692Z,3.8
2023-04-29T12:23:34.679Z,3
2023-04-29T12:25:36.476Z,3.8
2023-04-29T12:27:38.343Z,3.5
2023-04-29T12:28:40.816Z,3.7
2023-04-29T12:42:56.698Z,3.4
2023-04-29T12:44:58.629Z,3.9
2023-04-29T12:47:00.434Z,2.8
2023-04-29T12:49:02.200Z,5.4
2023-04-29T12:55:10.871Z,3
2023-04-29T13:19:49.616Z,5.3
2023-04-29T13:21:40.626Z,2.9
2023-04-29T13:23:42.476Z,4.2
2023-04-29T13:24:44.957Z,3.9
2023-04-29T13:28:48.610Z,3.5
2023-04-29T13:36:59.096Z,3
2023-04-29T13:39:00.939Z,2.2
2023-04-29T13:49:35.598Z,3.4
2023-04-29T13:53:31.753Z,3.3
2023-04-29T13:57:55.094Z,3.5
2023-04-29T14:05:31.321Z,3.4
2023-04-29T14:07:33.005Z,2.8
2023-04-29T14:09:34.844Z,4
2023-04-29T14:11:37.062Z,2.2
2023-04-29T14:13:38.552Z,4.2
2023-04-29T14:15:43.582Z,3.2
2023-04-29T14:17:45.466Z,3.4
2023-04-29T14:19:47.221Z,5.9
2023-04-29T14:20:49.718Z,9.7
2023-04-29T14:22:51.570Z,4.9
2023-04-29T14:24:53.783Z,5
2023-04-29T14:26:55.321Z,4.3
2023-04-29T14:29:00.500Z,4
2023-04-29T14:31:02.129Z,3
2023-04-29T14:35:05.790Z,3.8
2023-04-29T14:37:07.649Z,3.4
2023-04-29T14:41:11.333Z,3.6
2023-04-29T14:43:16.298Z,3.5
2023-04-29T14:45:18.127Z,7.6
2023-04-29T14:47:20.014Z,7.1
2023-04-29T14:49:21.821Z,7.1
2023-04-29T14:55:28.297Z,3.3
2023-04-29T14:59:34.186Z,6.6
2023-04-29T15:01:36.096Z,5.5
2023-04-29T15:03:43.564Z,4.2
2023-04-29T15:09:43.538Z,5.5
2023-04-29T15:11:48.514Z,5
2023-04-29T15:13:50.378Z,3.2
2023-04-29T15:15:52.249Z,4.1
2023-04-29T15:18:20.749Z,3.8
2023-04-29T15:20:22.676Z,5.6
2023-04-29T15:22:24.451Z,7.6
2023-04-29T15:36:40.565Z,3.3
2023-04-29T15:38:45.536Z,3.2
2023-04-29T15:40:47.396Z,4.4
2023-04-29T15:42:49.257Z,4.3
2023-04-29T15:44:51.101Z,3.6
2023-04-29T15:46:52.983Z,5
2023-04-29T15:48:54.809Z,5.6
2023-04-29T15:50:56.682Z,4.3
2023-04-29T15:53:01.705Z,4.8
2023-04-29T15:55:03.530Z,5.3
2023-04-29T15:57:05.434Z,7.7
2023-04-29T15:59:07.288Z,6.2
2023-04-29T16:01:09.153Z,18.7
2023-04-29T16:09:19.786Z,8.9
2023-04-29T16:11:21.653Z,7.6
2023-04-29T16:12:24.166Z,10
2023-04-29T16:14:26.427Z,4.5
2023-04-29T16:16:28.366Z,3.9
2023-04-29T16:18:30.187Z,8.6
2023-04-29T16:20:35.234Z,12.6
2023-04-29T16:22:37.108Z,7
2023-04-29T16:26:40.862Z,16.1
2023-04-29T16:30:44.579Z,9.9
2023-04-29T16:32:46.485Z,9.1
2023-04-29T16:36:53.358Z,4.5
2023-04-29T16:40:57.117Z,3.4
2023-04-29T16:45:00.877Z,2.3
2023-04-29T16:49:07.820Z,5.8
2023-04-29T16:53:11.578Z,7.5
2023-04-29T16:55:13.460Z,6.5
2023-04-29T17:03:24.118Z,3.5
2023-04-29T17:12:34.142Z,6
2023-04-29T17:16:41.390Z,5.3
2023-04-29T17:22:46.671Z,4.2
2023-04-29T17:26:51.966Z,2.7
2023-04-29T17:30:58.846Z,3.2
2023-04-29T17:33:00.812Z,3
2023-04-29T17:35:02.651Z,7.2
2023-04-29T17:37:04.529Z,6
2023-04-29T17:39:06.423Z,3.9
2023-04-29T17:41:08.309Z,3.6
2023-04-29T18:04:37.933Z,3.8
2023-04-29T18:06:39.893Z,5.8
2023-04-29T18:08:41.736Z,5.7
2023-04-29T18:10:43.627Z,3.9
2023-04-29T18:12:48.637Z,10
2023-04-29T18:14:50.543Z,12
2023-04-29T18:16:52.508Z,5.5
2023-04-29T18:20:56.232Z,3.6
2023-04-29T18:22:58.122Z,3.2
2023-04-29T18:25:00.441Z,15.5
2023-04-29T18:27:05.043Z,12
2023-04-29T18:39:16.648Z,3.6
2023-04-29T18:43:23.789Z,4.9
2023-04-29T18:45:25.846Z,3.1
2023-04-29T18:47:27.834Z,2.8
2023-04-29T18:55:38.652Z,3.7
2023-04-29T18:57:40.661Z,3.5
2023-04-29T18:59:42.529Z,6.7
2023-04-29T19:08:20.634Z,10.7
2023-04-29T19:10:22.689Z,6.8
2023-04-29T19:14:26.570Z,6.6
2023-04-29T19:18:30.577Z,6.3
2023-04-29T19:20:32.596Z,5.8
2023-04-29T19:24:39.753Z,6.1
2023-04-29T19:26:41.762Z,6.4
2023-04-29T19:28:43.717Z,5
2023-04-29T19:30:45.725Z,7.6
2023-04-29T19:32:47.777Z,7.9
2023-04-29T19:34:49.728Z,7
2023-04-29T19:38:56.998Z,4.9
2023-04-29T19:43:00.958Z,7.1
2023-04-29T19:45:02.967Z,11.5
2023-04-29T19:47:05.012Z,8.6
2023-04-29T19:53:14.232Z,7.2
2023-04-29T19:55:16.195Z,8.9
2023-04-29T19:56:18.850Z,10.4
2023-04-29T19:58:20.874Z,7.6
2023-04-29T20:00:22.883Z,6.7
2023-04-29T20:04:30.090Z,6.2
2023-04-29T20:10:36.079Z,7.5
2023-04-29T20:12:37.996Z,6.4
2023-04-29T20:24:53.236Z,9.8
2023-04-29T20:37:08.475Z,7.1
2023-04-29T20:43:14.497Z,15.7
2023-04-29T20:52:28.306Z,7.6
2023-04-29T20:54:30.328Z,7.9
2023-04-29T20:56:32.287Z,7.9
2023-04-29T20:58:34.305Z,6.3
2023-04-29T21:00:39.548Z,7.8
2023-04-29T21:02:41.563Z,7.4
2023-04-29T21:06:45.562Z,7.7
2023-04-29T21:12:51.472Z,7.4
2023-04-29T21:16:58.709Z,6.1
2023-04-29T21:19:00.678Z,7.4
2023-04-29T21:23:04.681Z,11
2023-04-29T21:25:06.685Z,7.4
2023-04-29T21:31:15.897Z,7
2023-04-29T21:33:17.799Z,8.2
2023-04-29T21:35:19.792Z,8.2
2023-04-29T21:41:25.789Z,6.4
2023-04-29T21:47:34.995Z,7.3
2023-04-29T21:48:37.566Z,6.3
2023-04-29T21:50:39.598Z,7.7
2023-04-29T21:52:41.591Z,7
2023-04-29T21:54:43.607Z,7.6
2023-04-29T21:56:48.788Z,8.1
2023-04-29T22:00:52.804Z,7.3
2023-04-29T22:02:54.810Z,6.9
2023-04-29T22:04:56.758Z,7.5
2023-04-29T22:11:06.009Z,8.2
2023-04-29T22:13:07.989Z,6.1
2023-04-29T22:15:17.432Z,6.8
2023-04-29T22:17:12.001Z,7.6
2023-04-29T22:19:13.968Z,8
2023-04-29T22:23:17.982Z,8.3
2023-04-29T22:25:23.163Z,9.9
2023-04-29T22:27:25.201Z,7.2
2023-04-29T22:29:27.177Z,7.7
2023-04-29T22:31:29.167Z,7
2023-04-29T22:35:33.119Z,7.5
2023-04-29T22:39:40.311Z,8
2023-04-29T22:41:42.262Z,7.7
2023-04-29T22:43:44.271Z,8.8
2023-04-29T22:46:13.330Z,9.1
2023-04-29T22:48:15.259Z,9.5
2023-04-29T22:52:22.392Z,8.5
2023-04-29T22:54:24.376Z,7.4
2023-04-29T22:56:26.346Z,7.5
2023-04-29T22:58:28.320Z,7.3
2023-04-29T23:00:30.317Z,6.6
2023-04-29T23:02:32.338Z,10
2023-04-29T23:06:39.649Z,9.1
2023-04-29T23:10:43.444Z,8.2
2023-04-29T23:12:45.420Z,9.7
2023-04-29T23:14:47.411Z,8.3
2023-04-29T23:16:50.968Z,7.4
2023-04-29T23:20:58.106Z,8.9
2023-04-29T23:23:00.125Z,8.2
2023-04-29T23:27:03.843Z,8.3
2023-04-29T23:31:07.843Z,9
2023-04-29T23:35:15.018Z,9.4
2023-04-29T23:37:16.961Z,8.6
2023-04-29T23:39:18.961Z,9
2023-04-29T23:40:21.557Z,9.4
2023-04-29T23:56:40.582Z,7.8
2023-04-29T23:58:42.586Z,8.1
